sensor_id;sensor_type;location;lat;lon;timestamp;pressure;altitude;pressure_sealevel;temperature;humidity
51452;BME280;37521;52.020;-1.740;2023-11-21T00:00:08;99906.94;;;6.45;100.00
51452;BME280;37521;52.020;-1.740;2023-11-21T00:02:40;99906.09;;;6.44;100.00
51452;BME280;37521;52.020;-1.740;2023-11-21T00:05:10;99911.34;;;6.44;100.00
51452;BME280;37521;52.020;-1.740;2023-11-21T00:07:41;99913.03;;;6.45;100.00
51452;BME280;37521;52.020;-1.740;2023-11-21T00:10:11;99913.91;;;6.46;100.00
51452;BME280;37521;52.020;-1.740;2023-11-21T00:12:42;99912.13;;;6.46;100.00
51452;BME280;37521;52.020;-1.740;2023-11-21T00:15:10;99916.47;;;6.47;100.00
51452;BME280;37521;52.020;-1.740;2023-11-21T00:17:39;99916.47;;;6.47;100.00
51452;BME280;37521;52.020;-1.740;2023-11-21T00:20:08;99915.53;;;6.50;100.00
51452;BME280;37521;52.020;-1.740;2023-11-21T00:22:41;99914.56;;;6.52;100.00
51452;BME280;37521;52.020;-1.740;2023-11-21T00:25:12;99916.28;;;6.53;100.00
51452;BME280;37521;52.020;-1.740;2023-11-21T00:27:42;99918.00;;;6.54;100.00
51452;BME280;37521;52.020;-1.740;2023-11-21T00:30:12;99926.72;;;6.55;100.00
51452;BME280;37521;52.020;-1.740;2023-11-21T00:32:41;99927.59;;;6.55;100.00
51452;BME280;37521;52.020;-1.740;2023-11-21T00:35:10;99930.16;;;6.57;100.00
51452;BME280;37521;52.020;-1.740;2023-11-21T00:37:38;99936.28;;;6.58;100.00
51452;BME280;37521;52.020;-1.740;2023-11-21T00:40:10;99941.53;;;6.58;100.00
51452;BME280;37521;52.020;-1.740;2023-11-21T00:42:39;99942.44;;;6.57;100.00
51452;BME280;37521;52.020;-1.740;2023-11-21T00:45:08;99945.84;;;6.59;100.00
51452;BME280;37521;52.020;-1.740;2023-11-21T00:47:37;99952.81;;;6.60;100.00
51452;BME280;37521;52.020;-1.740;2023-11-21T00:50:07;99956.25;;;6.62;100.00
51452;BME280;37521;52.020;-1.740;2023-11-21T00:52:36;99952.75;;;6.63;100.00
51452;BME280;37521;52.020;-1.740;2023-11-21T00:55:05;99946.63;;;6.62;100.00
51452;BME280;37521;52.020;-1.740;2023-11-21T00:57:36;99944.88;;;6.63;100.00
51452;BME280;37521;52.020;-1.740;2023-11-21T01:00:06;99952.75;;;6.63;100.00
51452;BME280;37521;52.020;-1.740;2023-11-21T01:02:37;99949.19;;;6.64;100.00
51452;BME280;37521;52.020;-1.740;2023-11-21T01:05:07;99964.03;;;6.65;100.00
51452;BME280;37521;52.020;-1.740;2023-11-21T01:07:35;99966.66;;;6.65;100.00
51452;BME280;37521;52.020;-1.740;2023-11-21T01:10:04;99964.84;;;6.67;100.00
51452;BME280;37521;52.020;-1.740;2023-11-21T01:12:36;99977.03;;;6.68;100.00
51452;BME280;37521;52.020;-1.740;2023-11-21T01:15:06;99982.28;;;6.68;100.00
51452;BME280;37521;52.020;-1.740;2023-11-21T01:17:36;99990.13;;;6.69;100.00
51452;BME280;37521;52.020;-1.740;2023-11-21T01:20:06;99995.34;;;6.71;100.00
51452;BME280;37521;52.020;-1.740;2023-11-21T01:22:41;99999.72;;;6.70;100.00
51452;BME280;37521;52.020;-1.740;2023-11-21T01:25:10;99999.78;;;6.69;100.00
51452;BME280;37521;52.020;-1.740;2023-11-21T01:27:43;100006.75;;;6.70;100.00
51452;BME280;37521;52.020;-1.740;2023-11-21T01:30:12;100006.75;;;6.70;100.00
51452;BME280;37521;52.020;-1.740;2023-11-21T01:32:43;100003.19;;;6.71;100.00
51452;BME280;37521;52.020;-1.740;2023-11-21T01:35:11;100015.41;;;6.72;100.00
51452;BME280;37521;52.020;-1.740;2023-11-21T01:37:40;100022.47;;;6.70;100.00
51452;BME280;37521;52.020;-1.740;2023-11-21T01:40:10;100028.59;;;6.70;100.00
51452;BME280;37521;52.020;-1.740;2023-11-21T01:42:43;100030.31;;;6.71;100.00
51452;BME280;37521;52.020;-1.740;2023-11-21T01:45:14;100038.13;;;6.73;100.00
51452;BME280;37521;52.020;-1.740;2023-11-21T01:47:44;100022.44;;;6.71;100.00
51452;BME280;37521;52.020;-1.740;2023-11-21T01:50:15;100025.91;;;6.72;100.00
51452;BME280;37521;52.020;-1.740;2023-11-21T01:52:46;100036.34;;;6.73;100.00
51452;BME280;37521;52.020;-1.740;2023-11-21T01:55:17;100052.03;;;6.75;100.00
51452;BME280;37521;52.020;-1.740;2023-11-21T01:57:56;100059.03;;;6.76;100.00
51452;BME280;37521;52.020;-1.740;2023-11-21T02:00:25;100058.13;;;6.77;100.00
51452;BME280;37521;52.020;-1.740;2023-11-21T02:02:56;100065.13;;;6.76;100.00
51452;BME280;37521;52.020;-1.740;2023-11-21T02:05:26;100067.72;;;6.78;100.00
51452;BME280;37521;52.020;-1.740;2023-11-21T02:07:58;100065.09;;;6.78;100.00
51452;BME280;37521;52.020;-1.740;2023-11-21T02:10:28;100071.25;;;6.77;100.00
51452;BME280;37521;52.020;-1.740;2023-11-21T02:12:59;100071.25;;;6.77;100.00
51452;BME280;37521;52.020;-1.740;2023-11-21T02:15:30;100081.69;;;6.78;100.00
51452;BME280;37521;52.020;-1.740;2023-11-21T02:17:58;100085.22;;;6.77;100.00
51452;BME280;37521;52.020;-1.740;2023-11-21T02:20:28;100093.03;;;6.79;100.00
51452;BME280;37521;52.020;-1.740;2023-11-21T02:22:58;100100.91;;;6.79;100.00
51452;BME280;37521;52.020;-1.740;2023-11-21T02:25:29;100101.78;;;6.79;100.00
51452;BME280;37521;52.020;-1.740;2023-11-21T02:28:01;100096.53;;;6.79;100.00
51452;BME280;37521;52.020;-1.740;2023-11-21T02:30:30;100101.78;;;6.79;100.00
51452;BME280;37521;52.020;-1.740;2023-11-21T02:33:00;100105.19;;;6.81;100.00
51452;BME280;37521;52.020;-1.740;2023-11-21T02:35:30;100109.59;;;6.81;100.00
51452;BME280;37521;52.020;-1.740;2023-11-21T02:38:01;100119.22;;;6.80;100.00
51452;BME280;37521;52.020;-1.740;2023-11-21T02:40:29;100114.91;;;6.79;100.00
51452;BME280;37521;52.020;-1.740;2023-11-21T02:42:58;100118.38;;;6.80;100.00
51452;BME280;37521;52.020;-1.740;2023-11-21T02:45:27;100123.69;;;6.78;100.00
51452;BME280;37521;52.020;-1.740;2023-11-21T02:47:55;100121.91;;;6.79;100.00
51452;BME280;37521;52.020;-1.740;2023-11-21T02:50:25;100125.44;;;6.78;100.00
51452;BME280;37521;52.020;-1.740;2023-11-21T02:52:54;100143.00;;;6.76;100.00
51452;BME280;37521;52.020;-1.740;2023-11-21T02:55:26;100130.00;;;6.71;100.00
51452;BME280;37521;52.020;-1.740;2023-11-21T02:57:55;100144.03;;;6.70;100.00
51452;BME280;37521;52.020;-1.740;2023-11-21T03:00:24;100137.94;;;6.70;100.00
51452;BME280;37521;52.020;-1.740;2023-11-21T03:02:55;100146.59;;;6.72;100.00
51452;BME280;37521;52.020;-1.740;2023-11-21T03:05:25;100141.38;;;6.72;100.00
51452;BME280;37521;52.020;-1.740;2023-11-21T03:07:53;100148.31;;;6.73;100.00
51452;BME280;37521;52.020;-1.740;2023-11-21T03:10:22;100151.84;;;6.72;100.00
51452;BME280;37521;52.020;-1.740;2023-11-21T03:12:52;100153.69;;;6.70;100.00
51452;BME280;37521;52.020;-1.740;2023-11-21T03:15:20;100156.28;;;6.70;100.00
51452;BME280;37521;52.020;-1.740;2023-11-21T03:17:49;100158.09;;;6.68;100.00
51452;BME280;37521;52.020;-1.740;2023-11-21T03:20:18;100160.72;;;6.68;100.00
51452;BME280;37521;52.020;-1.740;2023-11-21T03:22:46;100169.41;;;6.70;100.00
51452;BME280;37521;52.020;-1.740;2023-11-21T03:25:15;100176.44;;;6.68;100.00
51452;BME280;37521;52.020;-1.740;2023-11-21T03:27:44;100173.81;;;6.68;100.00
51452;BME280;37521;52.020;-1.740;2023-11-21T03:30:14;100171.19;;;6.68;100.00
51452;BME280;37521;52.020;-1.740;2023-11-21T03:32:43;100178.22;;;6.67;100.00
51452;BME280;37521;52.020;-1.740;2023-11-21T03:35:14;100177.41;;;6.65;100.00
51452;BME280;37521;52.020;-1.740;2023-11-21T03:37:42;100181.78;;;6.65;100.00
51452;BME280;37521;52.020;-1.740;2023-11-21T03:40:11;100179.16;;;6.65;100.00
51452;BME280;37521;52.020;-1.740;2023-11-21T03:42:41;100188.72;;;6.67;100.00
51452;BME280;37521;52.020;-1.740;2023-11-21T03:45:09;100187.81;;;6.68;100.00
51452;BME280;37521;52.020;-1.740;2023-11-21T03:47:42;100186.94;;;6.68;100.00
51452;BME280;37521;52.020;-1.740;2023-11-21T03:50:10;100202.69;;;6.68;100.00
51452;BME280;37521;52.020;-1.740;2023-11-21T03:52:39;100210.56;;;6.68;100.00
51452;BME280;37521;52.020;-1.740;2023-11-21T03:55:08;100207.06;;;6.67;100.00
51452;BME280;37521;52.020;-1.740;2023-11-21T03:57:41;100220.19;;;6.69;100.00
51452;BME280;37521;52.020;-1.740;2023-11-21T04:00:10;100218.44;;;6.68;100.00
51452;BME280;37521;52.020;-1.740;2023-11-21T04:02:41;100217.66;;;6.64;100.00
51452;BME280;37521;52.020;-1.740;2023-11-21T04:05:09;100223.81;;;6.63;100.00
51452;BME280;37521;52.020;-1.740;2023-11-21T04:07:38;100219.50;;;6.61;100.00
51452;BME280;37521;52.020;-1.740;2023-11-21T04:10:07;100225.75;;;6.57;100.00
51452;BME280;37521;52.020;-1.740;2023-11-21T04:12:36;100234.53;;;6.55;100.00
51452;BME280;37521;52.020;-1.740;2023-11-21T04:15:05;100223.03;;;6.60;100.00
51452;BME280;37521;52.020;-1.740;2023-11-21T04:17:36;100223.06;;;6.58;100.00
51452;BME280;37521;52.020;-1.740;2023-11-21T04:20:07;100242.25;;;6.60;100.00
51452;BME280;37521;52.020;-1.740;2023-11-21T04:22:38;100246.56;;;6.63;100.00
51452;BME280;37521;52.020;-1.740;2023-11-21T04:25:11;100250.06;;;6.62;100.00
51452;BME280;37521;52.020;-1.740;2023-11-21T04:27:41;100244.94;;;6.59;100.00
51452;BME280;37521;52.020;-1.740;2023-11-21T04:30:12;100244.13;;;6.55;100.00
51452;BME280;37521;52.020;-1.740;2023-11-21T04:32:40;100241.66;;;6.50;100.00
51452;BME280;37521;52.020;-1.740;2023-11-21T04:35:11;100246.94;;;6.47;100.00
51452;BME280;37521;52.020;-1.740;2023-11-21T04:37:39;100253.09;;;6.46;100.00
51452;BME280;37521;52.020;-1.740;2023-11-21T04:40:09;100252.28;;;6.44;100.00
51452;BME280;37521;52.020;-1.740;2023-11-21T04:42:37;100256.69;;;6.44;100.00
51452;BME280;37521;52.020;-1.740;2023-11-21T04:45:07;100266.31;;;6.43;100.00
51452;BME280;37521;52.020;-1.740;2023-11-21T04:47:38;100270.72;;;6.41;100.00
51452;BME280;37521;52.020;-1.740;2023-11-21T04:50:07;100272.47;;;6.41;100.00
51452;BME280;37521;52.020;-1.740;2023-11-21T04:52:37;100270.72;;;6.41;100.00
51452;BME280;37521;52.020;-1.740;2023-11-21T04:55:06;100278.59;;;6.41;100.00
51452;BME280;37521;52.020;-1.740;2023-11-21T04:57:37;100285.63;;;6.39;100.00
51452;BME280;37521;52.020;-1.740;2023-11-21T05:00:10;100292.69;;;6.37;100.00
51452;BME280;37521;52.020;-1.740;2023-11-21T05:02:40;100298.84;;;6.35;100.00
51452;BME280;37521;52.020;-1.740;2023-11-21T05:05:09;100306.75;;;6.33;100.00
51452;BME280;37521;52.020;-1.740;2023-11-21T05:07:40;100314.69;;;6.32;100.00
51452;BME280;37521;52.020;-1.740;2023-11-21T05:10:08;100319.06;;;6.31;100.00
51452;BME280;37521;52.020;-1.740;2023-11-21T05:12:40;100318.25;;;6.29;100.00
51452;BME280;37521;52.020;-1.740;2023-11-21T05:15:10;100324.41;;;6.26;100.00
51452;BME280;37521;52.020;-1.740;2023-11-21T05:17:41;100336.66;;;6.26;100.00
51452;BME280;37521;52.020;-1.740;2023-11-21T05:20:13;100327.06;;;6.25;100.00
51452;BME280;37521;52.020;-1.740;2023-11-21T05:22:46;100333.22;;;6.24;100.00
51452;BME280;37521;52.020;-1.740;2023-11-21T05:25:15;100345.56;;;6.19;100.00
51452;BME280;37521;52.020;-1.740;2023-11-21T05:27:45;100340.41;;;6.16;100.00
51452;BME280;37521;52.020;-1.740;2023-11-21T05:30:14;100353.56;;;6.13;100.00
51452;BME280;37521;52.020;-1.740;2023-11-21T05:32:42;100348.38;;;6.11;100.00
51452;BME280;37521;52.020;-1.740;2023-11-21T05:35:11;100354.56;;;6.09;100.00
51452;BME280;37521;52.020;-1.740;2023-11-21T05:37:43;100367.66;;;6.09;100.00
51452;BME280;37521;52.020;-1.740;2023-11-21T05:40:14;100374.59;;;6.11;100.00
51452;BME280;37521;52.020;-1.740;2023-11-21T05:42:44;100374.59;;;6.11;100.00
51452;BME280;37521;52.020;-1.740;2023-11-21T05:45:12;100379.81;;;6.11;100.00
51452;BME280;37521;52.020;-1.740;2023-11-21T05:47:42;100380.69;;;6.12;100.00
51452;BME280;37521;52.020;-1.740;2023-11-21T05:50:11;100393.78;;;6.12;100.00
51452;BME280;37521;52.020;-1.740;2023-11-21T05:52:42;100381.63;;;6.09;100.00
51452;BME280;37521;52.020;-1.740;2023-11-21T05:55:11;100383.41;;;6.07;100.00
51452;BME280;37521;52.020;-1.740;2023-11-21T05:57:43;100385.16;;;6.07;100.00
51452;BME280;37521;52.020;-1.740;2023-11-21T06:00:13;100393.91;;;6.06;100.00
51452;BME280;37521;52.020;-1.740;2023-11-21T06:02:48;100408.75;;;6.07;100.00
51452;BME280;37521;52.020;-1.740;2023-11-21T06:05:18;100397.41;;;6.06;100.00
51452;BME280;37521;52.020;-1.740;2023-11-21T06:07:47;100403.56;;;6.05;100.00
51452;BME280;37521;52.020;-1.740;2023-11-21T06:10:15;100394.81;;;6.05;100.00
51452;BME280;37521;52.020;-1.740;2023-11-21T06:12:48;100403.59;;;6.04;100.00
51452;BME280;37521;52.020;-1.740;2023-11-21T06:15:16;100410.59;;;6.01;100.00
51452;BME280;37521;52.020;-1.740;2023-11-21T06:17:46;100409.78;;;5.99;100.00
51452;BME280;37521;52.020;-1.740;2023-11-21T06:20:19;100417.66;;;5.99;100.00
51452;BME280;37521;52.020;-1.740;2023-11-21T06:22:49;100424.59;;;6.00;100.00
51452;BME280;37521;52.020;-1.740;2023-11-21T06:25:18;100429.84;;;6.00;100.00
51452;BME280;37521;52.020;-1.740;2023-11-21T06:27:49;100427.25;;;5.99;100.00
51452;BME280;37521;52.020;-1.740;2023-11-21T06:30:19;100431.66;;;5.98;100.00
51452;BME280;37521;52.020;-1.740;2023-11-21T06:32:47;100424.72;;;5.94;100.00
51452;BME280;37521;52.020;-1.740;2023-11-21T06:35:17;100437.00;;;5.92;100.00
51452;BME280;37521;52.020;-1.740;2023-11-21T06:37:45;100436.16;;;5.90;100.00
51452;BME280;37521;52.020;-1.740;2023-11-21T06:40:17;100433.59;;;5.87;100.00
51452;BME280;37521;52.020;-1.740;2023-11-21T06:42:49;100451.03;;;5.88;100.00
51452;BME280;37521;52.020;-1.740;2023-11-21T06:45:18;100467.66;;;5.87;100.00
51452;BME280;37521;52.020;-1.740;2023-11-21T06:47:47;100468.56;;;5.86;100.00
51452;BME280;37521;52.020;-1.740;2023-11-21T06:50:17;100469.44;;;5.85;100.00
51452;BME280;37521;52.020;-1.740;2023-11-21T06:52:45;100461.63;;;5.84;100.00
51452;BME280;37521;52.020;-1.740;2023-11-21T06:55:14;100469.47;;;5.84;100.00
51452;BME280;37521;52.020;-1.740;2023-11-21T06:57:43;100476.44;;;5.85;100.00
51452;BME280;37521;52.020;-1.740;2023-11-21T07:00:15;100471.25;;;5.82;100.00
51452;BME280;37521;52.020;-1.740;2023-11-21T07:02:45;100476.53;;;5.80;100.00
51452;BME280;37521;52.020;-1.740;2023-11-21T07:05:14;100476.53;;;5.80;100.00
51452;BME280;37521;52.020;-1.740;2023-11-21T07:07:48;100480.94;;;5.78;100.00
51452;BME280;37521;52.020;-1.740;2023-11-21T07:10:16;100481.75;;;5.80;100.00
51452;BME280;37521;52.020;-1.740;2023-11-21T07:12:45;100481.84;;;5.77;100.00
51452;BME280;37521;52.020;-1.740;2023-11-21T07:15:15;100498.38;;;5.79;100.00
51452;BME280;37521;52.020;-1.740;2023-11-21T07:17:44;100491.44;;;5.78;100.00
51452;BME280;37521;52.020;-1.740;2023-11-21T07:20:14;100501.00;;;5.79;100.00
51452;BME280;37521;52.020;-1.740;2023-11-21T07:22:44;100495.81;;;5.78;100.00
51452;BME280;37521;52.020;-1.740;2023-11-21T07:25:13;100502.84;;;5.76;100.00
51452;BME280;37521;52.020;-1.740;2023-11-21T07:27:41;100509.88;;;5.72;100.00
51452;BME280;37521;52.020;-1.740;2023-11-21T07:30:11;100517.81;;;5.69;100.00
51452;BME280;37521;52.020;-1.740;2023-11-21T07:32:41;100525.69;;;5.66;100.00
51452;BME280;37521;52.020;-1.740;2023-11-21T07:35:11;100524.88;;;5.64;100.00
51452;BME280;37521;52.020;-1.740;2023-11-21T07:37:39;100525.78;;;5.61;100.00
51452;BME280;37521;52.020;-1.740;2023-11-21T07:40:08;100532.78;;;5.61;100.00
51452;BME280;37521;52.020;-1.740;2023-11-21T07:42:38;100524.06;;;5.60;100.00
51452;BME280;37521;52.020;-1.740;2023-11-21T07:45:08;100530.16;;;5.61;100.00
51452;BME280;37521;52.020;-1.740;2023-11-21T07:47:36;100538.97;;;5.57;100.00
51452;BME280;37521;52.020;-1.740;2023-11-21T07:50:09;100541.63;;;5.55;100.00
51452;BME280;37521;52.020;-1.740;2023-11-21T07:52:37;100547.75;;;5.53;100.00
51452;BME280;37521;52.020;-1.740;2023-11-21T07:55:07;100557.41;;;5.51;100.00
51452;BME280;37521;52.020;-1.740;2023-11-21T07:57:35;100561.81;;;5.49;100.00
51452;BME280;37521;52.020;-1.740;2023-11-21T08:00:05;100566.19;;;5.46;100.00
51452;BME280;37521;52.020;-1.740;2023-11-21T08:02:39;100570.59;;;5.44;100.00
51452;BME280;37521;52.020;-1.740;2023-11-21T08:05:11;100577.56;;;5.45;100.00
51452;BME280;37521;52.020;-1.740;2023-11-21T08:07:51;100579.28;;;5.46;100.00
51452;BME280;37521;52.020;-1.740;2023-11-21T08:10:19;100577.53;;;5.49;100.00
51452;BME280;37521;52.020;-1.740;2023-11-21T08:12:49;100574.06;;;5.46;100.00
51452;BME280;37521;52.020;-1.740;2023-11-21T08:15:18;100582.81;;;5.45;100.00
51452;BME280;37521;52.020;-1.740;2023-11-21T08:17:47;100583.69;;;5.44;100.00
51452;BME280;37521;52.020;-1.740;2023-11-21T08:20:17;100586.31;;;5.44;100.00
51452;BME280;37521;52.020;-1.740;2023-11-21T08:22:46;100590.72;;;5.42;100.00
51452;BME280;37521;52.020;-1.740;2023-11-21T08:25:15;100598.59;;;5.42;100.00
51452;BME280;37521;52.020;-1.740;2023-11-21T08:27:47;100598.59;;;5.42;100.00
51452;BME280;37521;52.020;-1.740;2023-11-21T08:30:16;100600.31;;;5.43;100.00
51452;BME280;37521;52.020;-1.740;2023-11-21T08:32:46;100613.41;;;5.43;100.00
51452;BME280;37521;52.020;-1.740;2023-11-21T08:35:17;100618.66;;;5.42;100.00
51452;BME280;37521;52.020;-1.740;2023-11-21T08:37:45;100625.63;;;5.41;100.00
51452;BME280;37521;52.020;-1.740;2023-11-21T08:40:14;100626.53;;;5.40;100.00
51452;BME280;37521;52.020;-1.740;2023-11-21T08:42:44;100627.41;;;5.39;100.00
51452;BME280;37521;52.020;-1.740;2023-11-21T08:45:13;100642.25;;;5.40;100.00
51452;BME280;37521;52.020;-1.740;2023-11-21T08:47:41;100640.50;;;5.39;100.00
51452;BME280;37521;52.020;-1.740;2023-11-21T08:50:11;100644.88;;;5.39;100.00
51452;BME280;37521;52.020;-1.740;2023-11-21T08:52:42;100639.66;;;5.39;100.00
51452;BME280;37521;52.020;-1.740;2023-11-21T08:55:11;100646.63;;;5.40;100.00
51452;BME280;37521;52.020;-1.740;2023-11-21T08:57:41;100645.75;;;5.39;100.00
51452;BME280;37521;52.020;-1.740;2023-11-21T09:00:11;100657.06;;;5.41;100.00
51452;BME280;37521;52.020;-1.740;2023-11-21T09:02:43;100661.44;;;5.42;100.00
51452;BME280;37521;52.020;-1.740;2023-11-21T09:05:13;100660.47;;;5.46;100.00
51452;BME280;37521;52.020;-1.740;2023-11-21T09:07:43;100657.84;;;5.50;100.00
51452;BME280;37521;52.020;-1.740;2023-11-21T09:10:13;100661.28;;;5.52;100.00
51452;BME280;37521;52.020;-1.740;2023-11-21T09:12:42;100666.56;;;5.50;100.00
51452;BME280;37521;52.020;-1.740;2023-11-21T09:15:11;100665.63;;;5.53;100.00
51452;BME280;37521;52.020;-1.740;2023-11-21T09:17:40;100664.75;;;5.54;100.00
51452;BME280;37521;52.020;-1.740;2023-11-21T09:20:10;100665.59;;;5.56;100.00
51452;BME280;37521;52.020;-1.740;2023-11-21T09:22:39;100676.09;;;5.56;100.00
51452;BME280;37521;52.020;-1.740;2023-11-21T09:25:09;100675.16;;;5.58;100.00
51452;BME280;37521;52.020;-1.740;2023-11-21T09:27:38;100678.66;;;5.57;100.00
51452;BME280;37521;52.020;-1.740;2023-11-21T09:30:07;100677.75;;;5.60;100.00
51452;BME280;37521;52.020;-1.740;2023-11-21T09:32:37;100687.31;;;5.61;100.00
51452;BME280;37521;52.020;-1.740;2023-11-21T09:35:08;100682.06;;;5.64;100.00
51452;BME280;37521;52.020;-1.740;2023-11-21T09:37:37;100684.66;;;5.65;100.00
51452;BME280;37521;52.020;-1.740;2023-11-21T09:40:11;100682.88;;;5.69;100.00
51452;BME280;37521;52.020;-1.740;2023-11-21T09:42:49;100686.28;;;5.72;100.00
51452;BME280;37521;52.020;-1.740;2023-11-21T09:45:25;100688.84;;;5.77;100.00
51452;BME280;37521;52.020;-1.740;2023-11-21T09:47:54;100694.03;;;5.80;100.00
51452;BME280;37521;52.020;-1.740;2023-11-21T09:50:23;100695.75;;;5.81;100.00
51452;BME280;37521;52.020;-1.740;2023-11-21T09:53:11;100698.34;;;5.84;100.00
51452;BME280;37521;52.020;-1.740;2023-11-21T09:55:44;100699.97;;;5.93;100.00
51452;BME280;37521;52.020;-1.740;2023-11-21T09:58:14;100706.03;;;5.96;100.00
51452;BME280;37521;52.020;-1.740;2023-11-21T10:00:44;100718.19;;;6.00;100.00
51452;BME280;37521;52.020;-1.740;2023-11-21T10:03:13;100717.31;;;6.00;100.00
51452;BME280;37521;52.020;-1.740;2023-11-21T10:05:43;100718.19;;;6.02;100.00
51452;BME280;37521;52.020;-1.740;2023-11-21T10:08:13;100717.28;;;6.03;100.00
51452;BME280;37521;52.020;-1.740;2023-11-21T10:10:45;100725.13;;;6.05;100.00
51452;BME280;37521;52.020;-1.740;2023-11-21T10:13:16;100721.56;;;6.09;100.00
51452;BME280;37521;52.020;-1.740;2023-11-21T10:15:49;100731.09;;;6.13;100.00
51452;BME280;37521;52.020;-1.740;2023-11-21T10:18:19;100732.81;;;6.15;100.00
51452;BME280;37521;52.020;-1.740;2023-11-21T10:20:49;100737.13;;;6.18;100.00
51452;BME280;37521;52.020;-1.740;2023-11-21T10:23:22;100728.38;;;6.19;100.00
51452;BME280;37521;52.020;-1.740;2023-11-21T10:25:52;100731.00;;;6.19;100.00
51452;BME280;37521;52.020;-1.740;2023-11-21T10:28:24;100743.22;;;6.20;100.00
51452;BME280;37521;52.020;-1.740;2023-11-21T10:30:53;100751.91;;;6.23;100.00
51452;BME280;37521;52.020;-1.740;2023-11-21T10:33:27;100758.84;;;6.26;100.00
51452;BME280;37521;52.020;-1.740;2023-11-21T10:35:56;100760.53;;;6.28;100.00
51452;BME280;37521;52.020;-1.740;2023-11-21T10:38:24;100758.75;;;6.32;100.00
51452;BME280;37521;52.020;-1.740;2023-11-21T10:40:55;100757.81;;;6.36;100.00
51452;BME280;37521;52.020;-1.740;2023-11-21T10:43:25;100755.16;;;6.38;100.00
51452;BME280;37521;52.020;-1.740;2023-11-21T10:45:57;100756.03;;;6.38;100.00
51452;BME280;37521;52.020;-1.740;2023-11-21T10:48:26;100750.72;;;6.41;100.00
51452;BME280;37521;52.020;-1.740;2023-11-21T10:50:55;100761.22;;;6.40;100.00
51452;BME280;37521;52.020;-1.740;2023-11-21T10:53:28;100760.41;;;6.38;100.00
51452;BME280;37521;52.020;-1.740;2023-11-21T10:56:03;100768.31;;;6.36;100.00
51452;BME280;37521;52.020;-1.740;2023-11-21T10:58:35;100777.91;;;6.37;100.00
51452;BME280;37521;52.020;-1.740;2023-11-21T11:01:06;100785.81;;;6.36;100.00
51452;BME280;37521;52.020;-1.740;2023-11-21T11:03:38;100781.31;;;6.41;100.00
51452;BME280;37521;52.020;-1.740;2023-11-21T11:06:07;100772.56;;;6.42;100.00
51452;BME280;37521;52.020;-1.740;2023-11-21T11:08:39;100788.28;;;6.42;100.00
51452;BME280;37521;52.020;-1.740;2023-11-21T11:11:09;100781.31;;;6.42;100.00
51452;BME280;37521;52.020;-1.740;2023-11-21T11:13:43;100779.56;;;6.41;100.00
51452;BME280;37521;52.020;-1.740;2023-11-21T11:16:13;100786.56;;;6.41;100.00
51452;BME280;37521;52.020;-1.740;2023-11-21T11:18:45;100783.06;;;6.42;100.00
51452;BME280;37521;52.020;-1.740;2023-11-21T11:21:23;100783.81;;;6.48;100.00
51452;BME280;37521;52.020;-1.740;2023-11-21T11:24:10;100788.97;;;6.54;100.00
51452;BME280;37521;52.020;-1.740;2023-11-21T11:26:48;100779.31;;;6.57;100.00
51452;BME280;37521;52.020;-1.740;2023-11-21T11:29:28;100794.16;;;6.58;100.00
51452;BME280;37521;52.020;-1.740;2023-11-21T11:32:09;100792.38;;;6.60;100.00
51452;BME280;37521;52.020;-1.740;2023-11-21T11:34:45;100810.66;;;6.64;100.00
51452;BME280;37521;52.020;-1.740;2023-11-21T11:37:17;100809.78;;;6.65;100.00
51452;BME280;37521;52.020;-1.740;2023-11-21T11:39:46;100824.69;;;6.63;100.00
51452;BME280;37521;52.020;-1.740;2023-11-21T11:42:17;100827.31;;;6.62;100.00
51452;BME280;37521;52.020;-1.740;2023-11-21T11:44:51;100831.72;;;6.60;100.00
51452;BME280;37521;52.020;-1.740;2023-11-21T11:47:22;100823.91;;;6.58;100.00
51452;BME280;37521;52.020;-1.740;2023-11-21T11:49:57;100827.38;;;6.59;100.00
51452;BME280;37521;52.020;-1.740;2023-11-21T11:52:35;100846.66;;;6.58;100.00
51452;BME280;37521;52.020;-1.740;2023-11-21T11:55:07;100856.22;;;6.60;100.00
51452;BME280;37521;52.020;-1.740;2023-11-21T11:57:40;100860.59;;;6.60;100.00
51452;BME280;37521;52.020;-1.740;2023-11-21T12:00:14;100864.97;;;6.59;100.00
51452;BME280;37521;52.020;-1.740;2023-11-21T12:02:48;100866.75;;;6.59;100.00
51452;BME280;37521;52.020;-1.740;2023-11-21T12:05:19;100857.00;;;6.65;100.00
51452;BME280;37521;52.020;-1.740;2023-11-21T12:07:49;100839.47;;;6.69;100.00
51452;BME280;37521;52.020;-1.740;2023-11-21T12:10:20;100847.34;;;6.69;100.00
51452;BME280;37521;52.020;-1.740;2023-11-21T12:12:55;100856.94;;;6.70;100.00
51452;BME280;37521;52.020;-1.740;2023-11-21T12:15:24;100863.91;;;6.71;100.00
51452;BME280;37521;52.020;-1.740;2023-11-21T12:17:53;100866.53;;;6.71;100.00
51452;BME280;37521;52.020;-1.740;2023-11-21T12:20:23;100868.25;;;6.73;100.00
51452;BME280;37521;52.020;-1.740;2023-11-21T12:22:53;100863.81;;;6.77;100.00
51452;BME280;37521;52.020;-1.740;2023-11-21T12:25:22;100859.41;;;6.79;100.00
51452;BME280;37521;52.020;-1.740;2023-11-21T12:27:53;100871.69;;;6.77;100.00
51452;BME280;37521;52.020;-1.740;2023-11-21T12:30:22;100873.44;;;6.75;100.00
51452;BME280;37521;52.020;-1.740;2023-11-21T12:32:52;100881.31;;;6.75;100.00
51452;BME280;37521;52.020;-1.740;2023-11-21T12:35:21;100891.97;;;6.69;100.00
51452;BME280;37521;52.020;-1.740;2023-11-21T12:37:51;100878.03;;;6.64;100.00
51452;BME280;37521;52.020;-1.740;2023-11-21T12:40:21;100877.13;;;6.65;100.00
51452;BME280;37521;52.020;-1.740;2023-11-21T12:42:53;100880.69;;;6.62;100.00
51452;BME280;37521;52.020;-1.740;2023-11-21T12:45:23;100882.41;;;6.62;100.00
51452;BME280;37521;52.020;-1.740;2023-11-21T12:47:55;100908.66;;;6.63;100.00
51452;BME280;37521;52.020;-1.740;2023-11-21T12:50:28;100914.72;;;6.67;100.00
51452;BME280;37521;52.020;-1.740;2023-11-21T12:53:00;100907.69;;;6.69;100.00
51452;BME280;37521;52.020;-1.740;2023-11-21T12:55:30;100895.41;;;6.71;100.00